sensor_id;sensor_type;location;lat;lon;timestamp;P1;durP1;ratioP1;P2;durP2;ratioP2
39066;SDS011;24821;51.988;6.020;2022-09-29T00:01:37;8.93;;;5.78;;
39066;SDS011;24821;51.988;6.020;2022-09-29T00:04:03;6.45;;;6.07;;
39066;SDS011;24821;51.988;6.020;2022-09-29T00:06:28;6.30;;;5.90;;
39066;SDS011;24821;51.988;6.020;2022-09-29T00:08:54;6.40;;;6.00;;
39066;SDS011;24821;51.988;6.020;2022-09-29T00:11:21;8.40;;;5.60;;
39066;SDS011;24821;51.988;6.020;2022-09-29T00:13:47;6.22;;;5.72;;
39066;SDS011;24821;51.988;6.020;2022-09-29T00:16:13;6.43;;;5.93;;
39066;SDS011;24821;51.988;6.020;2022-09-29T00:18:38;6.25;;;5.82;;
39066;SDS011;24821;51.988;6.020;2022-09-29T00:21:05;6.38;;;5.90;;
39066;SDS011;24821;51.988;6.020;2022-09-29T00:23:33;5.68;;;5.35;;
39066;SDS011;24821;51.988;6.020;2022-09-29T00:26:07;11.70;;;6.53;;
39066;SDS011;24821;51.988;6.020;2022-09-29T00:28:39;6.43;;;5.90;;
39066;SDS011;24821;51.988;6.020;2022-09-29T00:31:07;6.05;;;5.75;;
39066;SDS011;24821;51.988;6.020;2022-09-29T00:33:35;6.97;;;6.57;;
39066;SDS011;24821;51.988;6.020;2022-09-29T00:36:05;6.50;;;6.13;;
39066;SDS011;24821;51.988;6.020;2022-09-29T00:38:36;6.95;;;6.50;;
39066;SDS011;24821;51.988;6.020;2022-09-29T00:41:02;6.50;;;6.10;;
39066;SDS011;24821;51.988;6.020;2022-09-29T00:46:27;7.18;;;6.55;;
39066;SDS011;24821;51.988;6.020;2022-09-29T00:48:58;7.28;;;6.78;;
39066;SDS011;24821;51.988;6.020;2022-09-29T00:51:29;7.53;;;7.03;;
39066;SDS011;24821;51.988;6.020;2022-09-29T00:53:58;8.13;;;7.43;;
39066;SDS011;24821;51.988;6.020;2022-09-29T00:56:24;8.07;;;7.47;;
39066;SDS011;24821;51.988;6.020;2022-09-29T00:58:55;8.32;;;7.60;;
39066;SDS011;24821;51.988;6.020;2022-09-29T01:01:26;7.97;;;7.28;;
39066;SDS011;24821;51.988;6.020;2022-09-29T01:03:55;8.77;;;8.13;;
39066;SDS011;24821;51.988;6.020;2022-09-29T01:06:26;8.00;;;7.25;;
39066;SDS011;24821;51.988;6.020;2022-09-29T01:09:27;8.50;;;7.68;;
39066;SDS011;24821;51.988;6.020;2022-09-29T01:11:56;25.80;;;10.88;;
39066;SDS011;24821;51.988;6.020;2022-09-29T01:14:22;9.63;;;8.82;;
39066;SDS011;24821;51.988;6.020;2022-09-29T01:16:50;11.88;;;9.60;;
39066;SDS011;24821;51.988;6.020;2022-09-29T01:20:03;10.27;;;8.70;;
39066;SDS011;24821;51.988;6.020;2022-09-29T01:27:43;12.13;;;8.00;;
39066;SDS011;24821;51.988;6.020;2022-09-29T01:33:11;7.95;;;7.25;;
39066;SDS011;24821;51.988;6.020;2022-09-29T01:38:34;26.03;;;8.63;;
39066;SDS011;24821;51.988;6.020;2022-09-29T01:41:14;8.00;;;7.22;;
39066;SDS011;24821;51.988;6.020;2022-09-29T01:43:46;10.82;;;6.13;;
39066;SDS011;24821;51.988;6.020;2022-09-29T01:46:21;7.35;;;6.80;;
39066;SDS011;24821;51.988;6.020;2022-09-29T01:49:15;7.72;;;6.93;;
39066;SDS011;24821;51.988;6.020;2022-09-29T01:51:49;6.88;;;6.38;;
39066;SDS011;24821;51.988;6.020;2022-09-29T01:54:27;6.90;;;6.30;;
39066;SDS011;24821;51.988;6.020;2022-09-29T01:57:01;7.47;;;6.88;;
39066;SDS011;24821;51.988;6.020;2022-09-29T02:02:16;7.57;;;7.07;;
39066;SDS011;24821;51.988;6.020;2022-09-29T02:04:49;7.97;;;7.45;;
39066;SDS011;24821;51.988;6.020;2022-09-29T02:07:21;6.70;;;6.30;;
39066;SDS011;24821;51.988;6.020;2022-09-29T02:09:55;7.47;;;6.88;;
39066;SDS011;24821;51.988;6.020;2022-09-29T02:12:27;7.88;;;7.30;;
39066;SDS011;24821;51.988;6.020;2022-09-29T02:14:56;7.55;;;7.05;;
39066;SDS011;24821;51.988;6.020;2022-09-29T02:17:25;7.60;;;6.93;;
39066;SDS011;24821;51.988;6.020;2022-09-29T02:19:55;7.25;;;6.78;;
39066;SDS011;24821;51.988;6.020;2022-09-29T02:22:21;13.65;;;8.77;;
39066;SDS011;24821;51.988;6.020;2022-09-29T02:24:47;18.77;;;9.70;;
39066;SDS011;24821;51.988;6.020;2022-09-29T02:27:17;12.68;;;9.07;;
39066;SDS011;24821;51.988;6.020;2022-09-29T02:29:43;13.32;;;10.05;;
39066;SDS011;24821;51.988;6.020;2022-09-29T02:32:08;9.48;;;8.73;;
39066;SDS011;24821;51.988;6.020;2022-09-29T02:34:35;9.60;;;8.57;;
39066;SDS011;24821;51.988;6.020;2022-09-29T02:40:21;8.68;;;7.97;;
39066;SDS011;24821;51.988;6.020;2022-09-29T02:43:15;12.30;;;8.50;;
39066;SDS011;24821;51.988;6.020;2022-09-29T02:46:20;8.45;;;7.75;;
39066;SDS011;24821;51.988;6.020;2022-09-29T02:51:40;16.30;;;9.65;;
39066;SDS011;24821;51.988;6.020;2022-09-29T02:54:27;37.92;;;10.70;;
39066;SDS011;24821;51.988;6.020;2022-09-29T03:00:09;12.15;;;8.18;;
39066;SDS011;24821;51.988;6.020;2022-09-29T03:02:38;16.20;;;10.00;;
39066;SDS011;24821;51.988;6.020;2022-09-29T03:05:06;14.30;;;9.00;;
39066;SDS011;24821;51.988;6.020;2022-09-29T03:07:34;17.98;;;9.00;;
39066;SDS011;24821;51.988;6.020;2022-09-29T03:10:01;14.70;;;8.48;;
39066;SDS011;24821;51.988;6.020;2022-09-29T03:12:27;9.30;;;8.70;;
39066;SDS011;24821;51.988;6.020;2022-09-29T03:14:53;14.07;;;7.88;;
39066;SDS011;24821;51.988;6.020;2022-09-29T03:17:19;7.80;;;7.20;;
39066;SDS011;24821;51.988;6.020;2022-09-29T03:19:44;10.32;;;8.15;;
39066;SDS011;24821;51.988;6.020;2022-09-29T03:22:10;14.95;;;8.10;;
39066;SDS011;24821;51.988;6.020;2022-09-29T03:24:35;18.30;;;8.95;;
39066;SDS011;24821;51.988;6.020;2022-09-29T03:27:01;19.08;;;10.05;;
39066;SDS011;24821;51.988;6.020;2022-09-29T03:29:27;24.00;;;9.57;;
39066;SDS011;24821;51.988;6.020;2022-09-29T03:31:52;21.60;;;9.98;;
39066;SDS011;24821;51.988;6.020;2022-09-29T03:34:18;20.60;;;10.05;;
39066;SDS011;24821;51.988;6.020;2022-09-29T03:36:44;22.10;;;9.93;;
39066;SDS011;24821;51.988;6.020;2022-09-29T03:39:09;12.32;;;9.32;;
39066;SDS011;24821;51.988;6.020;2022-09-29T03:41:35;11.52;;;7.63;;
39066;SDS011;24821;51.988;6.020;2022-09-29T03:44:00;10.32;;;7.68;;
39066;SDS011;24821;51.988;6.020;2022-09-29T03:46:26;13.77;;;8.73;;
39066;SDS011;24821;51.988;6.020;2022-09-29T03:48:52;7.65;;;7.25;;
39066;SDS011;24821;51.988;6.020;2022-09-29T03:51:18;8.18;;;7.47;;
39066;SDS011;24821;51.988;6.020;2022-09-29T03:53:43;8.40;;;7.55;;
39066;SDS011;24821;51.988;6.020;2022-09-29T03:56:09;11.27;;;7.40;;
39066;SDS011;24821;51.988;6.020;2022-09-29T03:58:35;8.38;;;7.05;;
39066;SDS011;24821;51.988;6.020;2022-09-29T04:01:00;24.88;;;8.70;;
39066;SDS011;24821;51.988;6.020;2022-09-29T04:03:26;18.92;;;8.05;;
39066;SDS011;24821;51.988;6.020;2022-09-29T04:05:52;24.55;;;9.27;;
39066;SDS011;24821;51.988;6.020;2022-09-29T04:08:18;12.32;;;8.55;;
39066;SDS011;24821;51.988;6.020;2022-09-29T04:10:47;25.90;;;10.38;;
39066;SDS011;24821;51.988;6.020;2022-09-29T04:13:12;19.08;;;9.05;;
39066;SDS011;24821;51.988;6.020;2022-09-29T04:15:39;16.58;;;8.75;;
39066;SDS011;24821;51.988;6.020;2022-09-29T04:18:05;23.65;;;10.73;;
39066;SDS011;24821;51.988;6.020;2022-09-29T04:20:30;14.00;;;9.85;;
39066;SDS011;24821;51.988;6.020;2022-09-29T04:22:56;11.70;;;9.15;;
39066;SDS011;24821;51.988;6.020;2022-09-29T04:25:22;16.48;;;9.82;;
39066;SDS011;24821;51.988;6.020;2022-09-29T04:27:48;26.58;;;10.70;;
39066;SDS011;24821;51.988;6.020;2022-09-29T04:30:13;12.68;;;9.45;;
39066;SDS011;24821;51.988;6.020;2022-09-29T04:32:40;21.42;;;11.02;;
39066;SDS011;24821;51.988;6.020;2022-09-29T04:35:05;29.02;;;11.35;;
39066;SDS011;24821;51.988;6.020;2022-09-29T04:37:31;10.65;;;9.13;;
39066;SDS011;24821;51.988;6.020;2022-09-29T04:39:57;25.23;;;10.98;;
39066;SDS011;24821;51.988;6.020;2022-09-29T04:42:22;10.23;;;9.23;;
39066;SDS011;24821;51.988;6.020;2022-09-29T04:44:48;9.13;;;8.25;;
39066;SDS011;24821;51.988;6.020;2022-09-29T04:47:13;22.58;;;9.55;;
39066;SDS011;24821;51.988;6.020;2022-09-29T04:49:39;8.98;;;8.38;;
39066;SDS011;24821;51.988;6.020;2022-09-29T04:52:05;17.85;;;10.70;;
39066;SDS011;24821;51.988;6.020;2022-09-29T04:54:31;23.90;;;9.93;;
39066;SDS011;24821;51.988;6.020;2022-09-29T04:56:57;11.23;;;9.93;;
39066;SDS011;24821;51.988;6.020;2022-09-29T04:59:23;35.22;;;29.98;;
39066;SDS011;24821;51.988;6.020;2022-09-29T05:01:49;20.85;;;17.67;;
39066;SDS011;24821;51.988;6.020;2022-09-29T05:04:14;28.63;;;18.90;;
39066;SDS011;24821;51.988;6.020;2022-09-29T05:06:40;20.52;;;15.52;;
39066;SDS011;24821;51.988;6.020;2022-09-29T05:09:05;19.10;;;17.00;;
39066;SDS011;24821;51.988;6.020;2022-09-29T05:11:31;32.22;;;17.42;;
39066;SDS011;24821;51.988;6.020;2022-09-29T05:13:57;15.60;;;13.98;;
39066;SDS011;24821;51.988;6.020;2022-09-29T05:16:23;12.60;;;11.52;;
39066;SDS011;24821;51.988;6.020;2022-09-29T05:18:52;17.73;;;10.15;;
39066;SDS011;24821;51.988;6.020;2022-09-29T05:21:18;28.67;;;11.18;;
39066;SDS011;24821;51.988;6.020;2022-09-29T05:23:43;36.65;;;10.63;;
39066;SDS011;24821;51.988;6.020;2022-09-29T05:26:09;10.48;;;9.57;;
39066;SDS011;24821;51.988;6.020;2022-09-29T05:28:37;9.77;;;8.93;;
39066;SDS011;24821;51.988;6.020;2022-09-29T05:31:07;9.52;;;8.88;;
39066;SDS011;24821;51.988;6.020;2022-09-29T05:33:33;18.27;;;10.73;;
39066;SDS011;24821;51.988;6.020;2022-09-29T05:36:00;11.13;;;10.32;;
39066;SDS011;24821;51.988;6.020;2022-09-29T05:38:29;10.70;;;8.95;;
39066;SDS011;24821;51.988;6.020;2022-09-29T05:40:54;10.25;;;9.45;;
39066;SDS011;24821;51.988;6.020;2022-09-29T05:43:20;9.90;;;9.15;;
39066;SDS011;24821;51.988;6.020;2022-09-29T05:45:46;11.32;;;10.43;;
39066;SDS011;24821;51.988;6.020;2022-09-29T05:48:11;11.57;;;10.50;;
39066;SDS011;24821;51.988;6.020;2022-09-29T05:50:37;10.35;;;9.55;;
39066;SDS011;24821;51.988;6.020;2022-09-29T05:53:09;11.68;;;10.43;;
39066;SDS011;24821;51.988;6.020;2022-09-29T05:55:36;13.48;;;12.13;;
39066;SDS011;24821;51.988;6.020;2022-09-29T05:58:02;13.32;;;12.23;;
39066;SDS011;24821;51.988;6.020;2022-09-29T06:00:29;13.38;;;12.48;;
39066;SDS011;24821;51.988;6.020;2022-09-29T06:02:58;20.00;;;14.52;;
39066;SDS011;24821;51.988;6.020;2022-09-29T06:05:25;28.52;;;14.95;;
39066;SDS011;24821;51.988;6.020;2022-09-29T06:07:51;34.05;;;14.68;;
39066;SDS011;24821;51.988;6.020;2022-09-29T06:10:17;16.05;;;14.50;;
39066;SDS011;24821;51.988;6.020;2022-09-29T06:12:43;17.45;;;13.50;;
39066;SDS011;24821;51.988;6.020;2022-09-29T06:15:09;23.58;;;16.00;;
39066;SDS011;24821;51.988;6.020;2022-09-29T06:17:35;19.05;;;14.32;;
39066;SDS011;24821;51.988;6.020;2022-09-29T06:20:01;15.13;;;13.93;;
39066;SDS011;24821;51.988;6.020;2022-09-29T06:22:27;29.30;;;16.25;;
39066;SDS011;24821;51.988;6.020;2022-09-29T06:24:53;15.85;;;14.52;;
39066;SDS011;24821;51.988;6.020;2022-09-29T06:27:19;21.42;;;15.50;;
39066;SDS011;24821;51.988;6.020;2022-09-29T06:29:44;15.75;;;14.27;;
39066;SDS011;24821;51.988;6.020;2022-09-29T06:32:10;13.80;;;12.70;;
39066;SDS011;24821;51.988;6.020;2022-09-29T06:34:35;46.83;;;18.27;;
39066;SDS011;24821;51.988;6.020;2022-09-29T06:37:21;30.75;;;17.27;;
39066;SDS011;24821;51.988;6.020;2022-09-29T06:39:59;32.40;;;17.83;;
39066;SDS011;24821;51.988;6.020;2022-09-29T06:42:28;22.25;;;15.15;;
39066;SDS011;24821;51.988;6.020;2022-09-29T06:44:54;36.25;;;17.75;;
39066;SDS011;24821;51.988;6.020;2022-09-29T06:47:20;19.00;;;17.05;;
39066;SDS011;24821;51.988;6.020;2022-09-29T06:49:46;27.90;;;18.77;;
39066;SDS011;24821;51.988;6.020;2022-09-29T06:52:12;25.42;;;16.08;;
39066;SDS011;24821;51.988;6.020;2022-09-29T06:54:38;14.77;;;13.50;;
39066;SDS011;24821;51.988;6.020;2022-09-29T06:57:03;15.75;;;13.90;;
39066;SDS011;24821;51.988;6.020;2022-09-29T06:59:29;15.63;;;14.40;;
39066;SDS011;24821;51.988;6.020;2022-09-29T07:01:54;18.70;;;15.90;;
39066;SDS011;24821;51.988;6.020;2022-09-29T07:04:20;13.65;;;12.70;;
39066;SDS011;24821;51.988;6.020;2022-09-29T07:06:46;16.48;;;12.75;;
39066;SDS011;24821;51.988;6.020;2022-09-29T07:09:12;20.38;;;11.95;;
39066;SDS011;24821;51.988;6.020;2022-09-29T07:11:40;12.95;;;10.60;;
39066;SDS011;24821;51.988;6.020;2022-09-29T07:14:11;12.25;;;11.38;;
39066;SDS011;24821;51.988;6.020;2022-09-29T07:16:41;13.32;;;12.02;;
39066;SDS011;24821;51.988;6.020;2022-09-29T07:19:07;14.10;;;12.02;;
39066;SDS011;24821;51.988;6.020;2022-09-29T07:21:32;18.58;;;11.98;;
39066;SDS011;24821;51.988;6.020;2022-09-29T07:23:58;13.95;;;12.13;;
39066;SDS011;24821;51.988;6.020;2022-09-29T07:26:24;16.52;;;12.82;;
39066;SDS011;24821;51.988;6.020;2022-09-29T07:28:49;14.10;;;12.95;;
39066;SDS011;24821;51.988;6.020;2022-09-29T07:31:19;14.25;;;12.85;;
39066;SDS011;24821;51.988;6.020;2022-09-29T07:33:46;22.80;;;15.98;;
39066;SDS011;24821;51.988;6.020;2022-09-29T07:36:14;20.60;;;14.10;;
39066;SDS011;24821;51.988;6.020;2022-09-29T07:38:43;15.65;;;14.15;;
39066;SDS011;24821;51.988;6.020;2022-09-29T07:41:10;17.65;;;14.43;;
39066;SDS011;24821;51.988;6.020;2022-09-29T07:43:36;14.45;;;13.25;;
39066;SDS011;24821;51.988;6.020;2022-09-29T07:46:02;18.65;;;14.75;;
39066;SDS011;24821;51.988;6.020;2022-09-29T07:48:29;19.65;;;16.75;;
39066;SDS011;24821;51.988;6.020;2022-09-29T07:50:59;21.65;;;16.15;;
39066;SDS011;24821;51.988;6.020;2022-09-29T07:53:30;12.57;;;11.43;;
39066;SDS011;24821;51.988;6.020;2022-09-29T07:56:00;17.15;;;15.38;;
39066;SDS011;24821;51.988;6.020;2022-09-29T07:58:30;17.95;;;16.17;;
39066;SDS011;24821;51.988;6.020;2022-09-29T08:00:56;19.40;;;17.42;;
39066;SDS011;24821;51.988;6.020;2022-09-29T08:03:22;19.38;;;17.52;;
39066;SDS011;24821;51.988;6.020;2022-09-29T08:05:49;16.90;;;15.35;;
39066;SDS011;24821;51.988;6.020;2022-09-29T08:08:16;17.35;;;16.00;;
39066;SDS011;24821;51.988;6.020;2022-09-29T08:10:41;19.80;;;18.13;;
39066;SDS011;24821;51.988;6.020;2022-09-29T08:13:07;22.67;;;17.58;;
39066;SDS011;24821;51.988;6.020;2022-09-29T08:15:33;30.02;;;17.95;;
39066;SDS011;24821;51.988;6.020;2022-09-29T08:17:59;18.55;;;16.67;;
39066;SDS011;24821;51.988;6.020;2022-09-29T08:20:24;30.02;;;17.60;;
39066;SDS011;24821;51.988;6.020;2022-09-29T08:22:50;24.45;;;18.88;;
39066;SDS011;24821;51.988;6.020;2022-09-29T08:25:17;19.17;;;17.38;;
39066;SDS011;24821;51.988;6.020;2022-09-29T08:27:43;20.23;;;18.55;;
39066;SDS011;24821;51.988;6.020;2022-09-29T08:30:09;23.33;;;21.08;;
39066;SDS011;24821;51.988;6.020;2022-09-29T08:32:36;21.88;;;20.10;;
39066;SDS011;24821;51.988;6.020;2022-09-29T08:35:02;23.92;;;21.98;;
39066;SDS011;24821;51.988;6.020;2022-09-29T08:37:28;22.23;;;20.23;;
39066;SDS011;24821;51.988;6.020;2022-09-29T08:39:55;22.70;;;20.67;;
39066;SDS011;24821;51.988;6.020;2022-09-29T08:45:02;22.67;;;20.88;;
39066;SDS011;24821;51.988;6.020;2022-09-29T08:47:33;24.98;;;22.88;;
39066;SDS011;24821;51.988;6.020;2022-09-29T08:50:02;25.92;;;23.70;;
39066;SDS011;24821;51.988;6.020;2022-09-29T08:52:39;24.20;;;22.08;;
39066;SDS011;24821;51.988;6.020;2022-09-29T08:57:41;26.08;;;23.92;;
39066;SDS011;24821;51.988;6.020;2022-09-29T09:00:14;23.27;;;21.35;;
39066;SDS011;24821;51.988;6.020;2022-09-29T09:02:53;23.10;;;21.10;;
39066;SDS011;24821;51.988;6.020;2022-09-29T09:16:31;26.42;;;24.13;;
39066;SDS011;24821;51.988;6.020;2022-09-29T09:21:42;25.30;;;23.23;;
39066;SDS011;24821;51.988;6.020;2022-09-29T09:24:27;25.05;;;22.85;;
39066;SDS011;24821;51.988;6.020;2022-09-29T09:27:06;24.65;;;22.38;;
39066;SDS011;24821;51.988;6.020;2022-09-29T09:29:38;26.88;;;24.40;;
39066;SDS011;24821;51.988;6.020;2022-09-29T09:32:18;27.35;;;24.75;;
39066;SDS011;24821;51.988;6.020;2022-09-29T09:35:00;28.00;;;25.48;;
39066;SDS011;24821;51.988;6.020;2022-09-29T09:37:41;26.83;;;24.42;;
39066;SDS011;24821;51.988;6.020;2022-09-29T09:42:36;26.80;;;24.63;;
39066;SDS011;24821;51.988;6.020;2022-09-29T09:45:09;26.90;;;24.60;;
39066;SDS011;24821;51.988;6.020;2022-09-29T09:47:58;28.90;;;26.30;;
39066;SDS011;24821;51.988;6.020;2022-09-29T09:50:46;25.98;;;23.70;;
39066;SDS011;24821;51.988;6.020;2022-09-29T09:55:52;26.42;;;24.33;;
39066;SDS011;24821;51.988;6.020;2022-09-29T09:59:15;26.85;;;24.77;;
39066;SDS011;24821;51.988;6.020;2022-09-29T10:01:42;25.27;;;23.23;;
39066;SDS011;24821;51.988;6.020;2022-09-29T10:04:10;29.40;;;27.02;;
39066;SDS011;24821;51.988;6.020;2022-09-29T10:06:37;30.85;;;28.35;;
39066;SDS011;24821;51.988;6.020;2022-09-29T10:09:02;25.33;;;23.38;;
39066;SDS011;24821;51.988;6.020;2022-09-29T10:11:31;24.92;;;22.90;;
39066;SDS011;24821;51.988;6.020;2022-09-29T10:13:58;28.88;;;26.80;;
39066;SDS011;24821;51.988;6.020;2022-09-29T10:16:30;26.83;;;24.73;;
39066;SDS011;24821;51.988;6.020;2022-09-29T10:19:05;26.30;;;23.98;;
39066;SDS011;24821;51.988;6.020;2022-09-29T10:23:57;23.02;;;21.33;;
39066;SDS011;24821;51.988;6.020;2022-09-29T10:29:01;25.35;;;23.48;;
39066;SDS011;24821;51.988;6.020;2022-09-29T10:32:01;23.77;;;21.83;;
39066;SDS011;24821;51.988;6.020;2022-09-29T10:34:31;22.65;;;20.98;;
39066;SDS011;24821;51.988;6.020;2022-09-29T10:42:20;23.15;;;21.35;;
39066;SDS011;24821;51.988;6.020;2022-09-29T10:44:52;20.88;;;19.17;;
39066;SDS011;24821;51.988;6.020;2022-09-29T10:47:26;18.67;;;17.27;;
39066;SDS011;24821;51.988;6.020;2022-09-29T10:50:15;18.52;;;17.27;;
39066;SDS011;24821;51.988;6.020;2022-09-29T10:52:42;15.38;;;14.32;;
39066;SDS011;24821;51.988;6.020;2022-09-29T10:55:16;17.42;;;16.23;;
39066;SDS011;24821;51.988;6.020;2022-09-29T10:57:53;16.50;;;15.30;;
39066;SDS011;24821;51.988;6.020;2022-09-29T11:00:26;19.25;;;17.75;;
39066;SDS011;24821;51.988;6.020;2022-09-29T11:03:16;20.50;;;18.48;;
39066;SDS011;24821;51.988;6.020;2022-09-29T11:05:50;23.52;;;21.42;;
39066;SDS011;24821;51.988;6.020;2022-09-29T11:08:18;24.60;;;22.20;;
39066;SDS011;24821;51.988;6.020;2022-09-29T11:10:49;13.88;;;12.77;;
39066;SDS011;24821;51.988;6.020;2022-09-29T11:13:33;12.27;;;11.38;;
39066;SDS011;24821;51.988;6.020;2022-09-29T11:16:11;16.48;;;14.63;;
39066;SDS011;24821;51.988;6.020;2022-09-29T11:18:43;13.68;;;12.68;;
39066;SDS011;24821;51.988;6.020;2022-09-29T11:23:59;12.38;;;11.38;;
39066;SDS011;24821;51.988;6.020;2022-09-29T11:32:19;13.43;;;12.63;;
39066;SDS011;24821;51.988;6.020;2022-09-29T11:45:09;19.48;;;18.17;;
39066;SDS011;24821;51.988;6.020;2022-09-29T11:50:31;18.10;;;17.05;;
39066;SDS011;24821;51.988;6.020;2022-09-29T11:56:09;20.10;;;18.88;;
39066;SDS011;24821;51.988;6.020;2022-09-29T12:04:34;20.98;;;19.80;;
39066;SDS011;24821;51.988;6.020;2022-09-29T12:09:57;14.05;;;13.32;;
39066;SDS011;24821;51.988;6.020;2022-09-29T12:12:58;9.15;;;8.65;;
39066;SDS011;24821;51.988;6.020;2022-09-29T12:15:35;9.43;;;8.77;;
39066;SDS011;24821;51.988;6.020;2022-09-29T12:18:34;7.32;;;6.85;;
39066;SDS011;24821;51.988;6.020;2022-09-29T12:21:09;10.10;;;9.50;;
39066;SDS011;24821;51.988;6.020;2022-09-29T12:23:37;10.65;;;10.05;;
39066;SDS011;24821;51.988;6.020;2022-09-29T12:26:23;9.52;;;8.93;;
39066;SDS011;24821;51.988;6.020;2022-09-29T12:28:52;10.55;;;9.85;;
39066;SDS011;24821;51.988;6.020;2022-09-29T12:31:24;7.35;;;6.75;;
39066;SDS011;24821;51.988;6.020;2022-09-29T12:34:14;7.28;;;6.93;;
39066;SDS011;24821;51.988;6.020;2022-09-29T12:36:52;6.60;;;6.30;;
39066;SDS011;24821;51.988;6.020;2022-09-29T12:47:46;6.57;;;6.13;;
39066;SDS011;24821;51.988;6.020;2022-09-29T12:56:19;20.90;;;16.50;;
39066;SDS011;24821;51.988;6.020;2022-09-29T12:58:51;50.65;;;32.28;;
39066;SDS011;24821;51.988;6.020;2022-09-29T13:15:12;9.82;;;9.32;;
39066;SDS011;24821;51.988;6.020;2022-09-29T13:17:55;8.95;;;8.45;;
39066;SDS011;24821;51.988;6.020;2022-09-29T13:28:32;5.88;;;5.57;;
39066;SDS011;24821;51.988;6.020;2022-09-29T13:31:13;6.40;;;6.07;;
39066;SDS011;24821;51.988;6.020;2022-09-29T13:33:45;6.47;;;6.07;;
39066;SDS011;24821;51.988;6.020;2022-09-29T13:36:24;6.75;;;6.35;;
39066;SDS011;24821;51.988;6.020;2022-09-29T13:38:54;8.40;;;7.97;;
39066;SDS011;24821;51.988;6.020;2022-09-29T14:12:59;5.30;;;4.90;;
39066;SDS011;24821;51.988;6.020;2022-09-29T14:15:27;3.95;;;3.75;;
39066;SDS011;24821;51.988;6.020;2022-09-29T14:18:03;3.72;;;3.53;;
39066;SDS011;24821;51.988;6.020;2022-09-29T14:20:38;3.90;;;3.63;;
39066;SDS011;24821;51.988;6.020;2022-09-29T14:29:16;3.92;;;3.63;;
39066;SDS011;24821;51.988;6.020;2022-09-29T14:31:49;3.40;;;3.30;;
39066;SDS011;24821;51.988;6.020;2022-09-29T14:34:18;3.75;;;3.55;;
39066;SDS011;24821;51.988;6.020;2022-09-29T14:36:47;3.83;;;3.63;;
39066;SDS011;24821;51.988;6.020;2022-09-29T14:39:17;4.72;;;4.30;;
39066;SDS011;24821;51.988;6.020;2022-09-29T14:41:45;3.33;;;3.17;;
39066;SDS011;24821;51.988;6.020;2022-09-29T14:44:25;3.63;;;3.42;;
39066;SDS011;24821;51.988;6.020;2022-09-29T14:50:57;3.42;;;3.22;;
39066;SDS011;24821;51.988;6.020;2022-09-29T14:54:04;3.17;;;3.00;;
39066;SDS011;24821;51.988;6.020;2022-09-29T15:02:28;3.63;;;2.65;;
39066;SDS011;24821;51.988;6.020;2022-09-29T15:04:56;3.22;;;3.03;;
39066;SDS011;24821;51.988;6.020;2022-09-29T15:07:23;3.08;;;2.88;;
39066;SDS011;24821;51.988;6.020;2022-09-29T15:09:52;2.95;;;2.85;;
39066;SDS011;24821;51.988;6.020;2022-09-29T15:12:23;3.00;;;2.85;;
39066;SDS011;24821;51.988;6.020;2022-09-29T15:14:50;3.05;;;2.95;;
39066;SDS011;24821;51.988;6.020;2022-09-29T15:20:14;2.00;;;1.90;;
39066;SDS011;24821;51.988;6.020;2022-09-29T15:25:54;2.30;;;2.20;;
39066;SDS011;24821;51.988;6.020;2022-09-29T15:28:32;2.25;;;2.15;;
39066;SDS011;24821;51.988;6.020;2022-09-29T15:31:05;2.20;;;2.10;;
39066;SDS011;24821;51.988;6.020;2022-09-29T15:33:37;2.25;;;1.90;;
39066;SDS011;24821;51.988;6.020;2022-09-29T15:36:21;1.92;;;1.88;;
39066;SDS011;24821;51.988;6.020;2022-09-29T15:38:51;2.00;;;1.90;;
39066;SDS011;24821;51.988;6.020;2022-09-29T15:41:19;2.15;;;2.05;;
39066;SDS011;24821;51.988;6.020;2022-09-29T15:43:57;2.13;;;2.03;;
39066;SDS011;24821;51.988;6.020;2022-09-29T15:49:05;2.10;;;2.00;;
39066;SDS011;24821;51.988;6.020;2022-09-29T15:51:33;2.60;;;2.50;;
39066;SDS011;24821;51.988;6.020;2022-09-29T15:54:00;2.70;;;2.60;;
39066;SDS011;24821;51.988;6.020;2022-09-29T15:56:29;3.03;;;2.83;;
39066;SDS011;24821;51.988;6.020;2022-09-29T15:59:17;3.10;;;2.90;;
39066;SDS011;24821;51.988;6.020;2022-09-29T16:01:43;2.75;;;2.63;;
39066;SDS011;24821;51.988;6.020;2022-09-29T16:04:09;3.10;;;3.00;;
39066;SDS011;24821;51.988;6.020;2022-09-29T16:06:35;2.97;;;2.78;;
39066;SDS011;24821;51.988;6.020;2022-09-29T16:09:05;3.35;;;3.15;;
39066;SDS011;24821;51.988;6.020;2022-09-29T16:11:43;3.47;;;3.28;;
39066;SDS011;24821;51.988;6.020;2022-09-29T16:14:20;24.33;;;21.98;;
39066;SDS011;24821;51.988;6.020;2022-09-29T16:16:50;16.20;;;14.50;;
39066;SDS011;24821;51.988;6.020;2022-09-29T16:21:49;15.80;;;14.30;;
39066;SDS011;24821;51.988;6.020;2022-09-29T16:24:17;9.07;;;8.38;;
39066;SDS011;24821;51.988;6.020;2022-09-29T16:26:51;5.18;;;4.88;;
39066;SDS011;24821;51.988;6.020;2022-09-29T16:31:44;4.53;;;4.10;;
39066;SDS011;24821;51.988;6.020;2022-09-29T16:37:05;3.60;;;3.40;;
39066;SDS011;24821;51.988;6.020;2022-09-29T16:39:45;4.03;;;3.72;;
39066;SDS011;24821;51.988;6.020;2022-09-29T16:42:19;4.13;;;3.90;;
39066;SDS011;24821;51.988;6.020;2022-09-29T16:44:49;4.70;;;4.40;;
39066;SDS011;24821;51.988;6.020;2022-09-29T16:47:17;5.50;;;5.20;;
39066;SDS011;24821;51.988;6.020;2022-09-29T16:50:01;5.80;;;5.40;;
39066;SDS011;24821;51.988;6.020;2022-09-29T16:52:44;5.68;;;5.25;;
39066;SDS011;24821;51.988;6.020;2022-09-29T16:55:15;4.93;;;4.72;;
39066;SDS011;24821;51.988;6.020;2022-09-29T17:00:39;5.32;;;5.03;;
39066;SDS011;24821;51.988;6.020;2022-09-29T17:03:08;5.13;;;4.82;;
39066;SDS011;24821;51.988;6.020;2022-09-29T17:05:41;5.95;;;5.65;;
39066;SDS011;24821;51.988;6.020;2022-09-29T17:08:21;6.35;;;5.85;;
39066;SDS011;24821;51.988;6.020;2022-09-29T17:10:50;6.13;;;5.80;;
39066;SDS011;24821;51.988;6.020;2022-09-29T17:13:17;6.63;;;6.25;;
39066;SDS011;24821;51.988;6.020;2022-09-29T17:15:44;7.53;;;7.13;;
39066;SDS011;24821;51.988;6.020;2022-09-29T17:18:13;8.07;;;7.60;;
39066;SDS011;24821;51.988;6.020;2022-09-29T17:20:39;7.68;;;7.28;;
39066;SDS011;24821;51.988;6.020;2022-09-29T17:23:06;8.65;;;8.05;;
39066;SDS011;24821;51.988;6.020;2022-09-29T17:25:33;7.95;;;7.53;;
39066;SDS011;24821;51.988;6.020;2022-09-29T17:28:00;7.85;;;7.45;;
39066;SDS011;24821;51.988;6.020;2022-09-29T17:30:39;6.68;;;6.35;;
39066;SDS011;24821;51.988;6.020;2022-09-29T17:33:08;7.30;;;6.85;;
39066;SDS011;24821;51.988;6.020;2022-09-29T17:35:36;10.07;;;9.48;;
39066;SDS011;24821;51.988;6.020;2022-09-29T17:38:04;12.20;;;11.50;;
39066;SDS011;24821;51.988;6.020;2022-09-29T17:42:58;9.57;;;9.07;;
39066;SDS011;24821;51.988;6.020;2022-09-29T17:45:25;8.95;;;8.55;;
39066;SDS011;24821;51.988;6.020;2022-09-29T17:47:54;7.68;;;7.18;;
39066;SDS011;24821;51.988;6.020;2022-09-29T17:50:27;7.80;;;7.50;;
39066;SDS011;24821;51.988;6.020;2022-09-29T17:52:56;7.38;;;7.07;;
39066;SDS011;24821;51.988;6.020;2022-09-29T17:55:23;7.13;;;6.82;;
39066;SDS011;24821;51.988;6.020;2022-09-29T17:57:50;6.70;;;6.20;;
39066;SDS011;24821;51.988;6.020;2022-09-29T18:00:21;7.00;;;6.63;;
39066;SDS011;24821;51.988;6.020;2022-09-29T18:02:52;6.25;;;5.95;;
39066;SDS011;24821;51.988;6.020;2022-09-29T18:05:21;6.90;;;6.50;;
39066;SDS011;24821;51.988;6.020;2022-09-29T18:07:49;6.40;;;6.05;;
39066;SDS011;24821;51.988;6.020;2022-09-29T18:12:55;5.53;;;5.22;;
39066;SDS011;24821;51.988;6.020;2022-09-29T18:15:21;4.85;;;4.65;;